Time;durP1;ratioP1;P1;durP2;ratioP2;P2;SDS_P1;SDS_P2;PMS_P1;PMS_P2;Temp;Humidity;BMP_temperature;BMP_pressure;BME280_temperature;BME280_humidity;BME280_pressure;Samples;Min_cycle;Max_cycle;Signal;HPM_P1;HPM_P2
2020/12/05 00:00:35;;;;;;;;;82.25;60.50;;;;;1.45;92.41;99135.88;5056955;28;9581;-52
2020/12/05 00:03:02;;;;;;;;;83.25;60.00;;;;;1.54;93.11;99136.44;5054717;28;8832;-54
2020/12/05 00:05:29;;;;;;;;;73.00;54.50;;;;;1.50;92.69;99132.16;5054883;28;8841;-55
2020/12/05 00:07:57;;;;;;;;;80.25;59.50;;;;;1.31;92.63;99134.53;5058403;28;8835;-54
2020/12/05 00:10:23;;;;;;;;;75.50;57.75;;;;;1.46;92.75;99138.47;5074139;28;8858;-54
2020/12/05 00:12:50;;;;;;;;;80.25;58.00;;;;;1.54;92.17;99146.16;5041740;28;8817;-52
2020/12/05 00:15:17;;;;;;;;;78.50;57.00;;;;;1.43;92.81;99150.94;5054219;28;8873;-54
2020/12/05 00:17:44;;;;;;;;;111.00;78.50;;;;;1.35;92.74;99145.91;5059167;28;8823;-55
2020/12/05 00:20:11;;;;;;;;;100.00;73.00;;;;;1.63;93.19;99142.31;5055521;28;8834;-54
2020/12/05 00:22:39;;;;;;;;;98.50;71.50;;;;;1.91;92.86;99145.75;5061037;28;8822;-55
2020/12/05 00:25:06;;;;;;;;;83.75;63.00;;;;;1.82;92.65;99139.91;5070676;28;8870;-55
2020/12/05 00:27:33;;;;;;;;;89.50;64.75;;;;;1.80;92.35;99131.16;5054522;28;8818;-53
2020/12/05 00:29:59;;;;;;;;;85.75;59.25;;;;;1.83;92.46;99139.84;5050444;28;8814;-52
2020/12/05 00:32:28;;;;;;;;;97.00;71.00;;;;;1.86;92.03;99142.38;5055116;28;8857;-55
2020/12/05 00:34:55;;;;;;;;;111.25;77.75;;;;;1.88;92.24;99139.72;5067847;28;8970;-54
2020/12/05 00:37:22;;;;;;;;;98.75;67.25;;;;;1.98;92.59;99136.69;5059466;28;8818;-55
2020/12/05 00:39:49;;;;;;;;;80.00;55.00;;;;;1.82;91.61;99130.19;5072859;28;8938;-54
2020/12/05 00:42:16;;;;;;;;;85.75;58.00;;;;;1.85;92.66;99135.38;5057982;28;8834;-55
2020/12/05 00:44:43;;;;;;;;;82.50;61.00;;;;;1.77;92.73;99139.22;5053948;28;8842;-53
2020/12/05 00:47:10;;;;;;;;;84.50;55.25;;;;;1.79;92.45;99135.59;5054182;28;8822;-55
2020/12/05 00:49:37;;;;;;;;;100.00;70.50;;;;;1.70;92.64;99135.91;5057507;28;8915;-55
2020/12/05 00:52:04;;;;;;;;;121.75;81.75;;;;;1.68;92.73;99133.31;5053962;28;8822;-52
2020/12/05 00:54:31;;;;;;;;;93.00;69.25;;;;;1.56;92.33;99132.88;5053147;28;8841;-53
2020/12/05 00:56:59;;;;;;;;;78.25;53.00;;;;;1.49;92.57;99137.50;5052606;28;8860;-54
2020/12/05 00:59:25;;;;;;;;;87.50;63.25;;;;;1.61;92.76;99130.94;5054848;28;8899;-54
2020/12/05 01:01:56;;;;;;;;;89.50;63.75;;;;;1.56;92.87;99135.53;5054284;28;8811;-53
2020/12/05 01:04:23;;;;;;;;;82.75;61.25;;;;;1.68;92.81;99137.72;5053272;28;8848;-54
2020/12/05 01:06:50;;;;;;;;;83.50;64.25;;;;;1.85;92.52;99143.31;5055017;28;8860;-53
2020/12/05 01:09:17;;;;;;;;;80.50;59.00;;;;;1.87;92.02;99149.44;5057601;28;8849;-55
2020/12/05 01:11:47;;;;;;;;;79.50;56.50;;;;;1.73;92.22;99141.94;5066007;28;8821;-54
2020/12/05 01:14:14;;;;;;;;;70.00;49.00;;;;;1.86;91.98;99141.53;5057852;28;8854;-54
2020/12/05 01:16:44;;;;;;;;;84.00;57.25;;;;;1.60;92.29;99155.66;5058463;28;8863;-54
2020/12/05 01:19:10;;;;;;;;;87.00;59.00;;;;;1.58;92.49;99154.84;5060909;28;8815;-55
2020/12/05 01:21:37;;;;;;;;;83.75;64.75;;;;;1.48;92.66;99163.09;5060026;28;8830;-55
2020/12/05 01:24:04;;;;;;;;;78.00;59.50;;;;;1.41;92.50;99164.19;5072156;28;8816;-55
2020/12/05 01:26:31;;;;;;;;;80.50;60.50;;;;;1.62;92.52;99159.13;5057842;28;8932;-54
2020/12/05 01:28:58;;;;;;;;;83.25;58.50;;;;;1.35;92.10;99167.06;5058114;28;8914;-57
2020/12/05 01:31:25;;;;;;;;;72.25;58.00;;;;;1.25;93.03;99168.25;5057122;28;9452;-57
2020/12/05 01:33:52;;;;;;;;;77.00;55.50;;;;;1.34;92.46;99160.03;5060742;28;8849;-56
2020/12/05 01:36:19;;;;;;;;;80.25;55.75;;;;;1.42;92.94;99162.41;5077566;28;8831;-57
2020/12/05 01:38:46;;;;;;;;;80.25;55.50;;;;;1.28;92.43;99157.59;5068704;28;8937;-57
2020/12/05 01:41:13;;;;;;;;;78.50;57.00;;;;;1.10;92.65;99159.03;5057145;28;8856;-56
2020/12/05 01:43:40;;;;;;;;;77.50;57.50;;;;;1.12;92.97;99154.56;5063355;28;8846;-56
2020/12/05 01:46:41;;;;;;;;;78.25;56.00;;;;;0.90;92.83;99157.03;5068716;28;8834;-57
2020/12/05 01:49:12;;;;;;;;;78.00;52.00;;;;;0.92;92.82;99157.81;5057845;28;8896;-57
2020/12/05 01:51:42;;;;;;;;;81.00;60.50;;;;;0.97;93.21;99160.34;5056608;28;9546;-57
2020/12/05 01:54:10;;;;;;;;;80.50;56.50;;;;;0.79;93.09;99167.03;5056333;28;8840;-56
2020/12/05 01:56:38;;;;;;;;;74.75;54.00;;;;;0.92;94.05;99160.47;5053516;28;8860;-57
2020/12/05 01:59:06;;;;;;;;;77.25;56.00;;;;;0.70;93.62;99178.75;5057660;28;8837;-56
2020/12/05 02:01:33;;;;;;;;;78.00;61.00;;;;;0.68;93.83;99177.06;5065003;28;8822;-55
2020/12/05 02:04:03;;;;;;;;;80.50;58.50;;;;;1.19;93.23;99163.19;5056715;28;8829;-54
2020/12/05 02:07:04;;;;;;;;;97.00;66.25;;;;;0.74;93.74;99168.94;5063479;28;8830;-56
2020/12/05 02:09:47;;;;;;;;;76.75;52.50;;;;;0.68;93.84;99155.94;5062900;28;8940;-57
2020/12/05 02:12:39;;;;;;;;;91.25;64.25;;;;;0.80;94.26;99152.94;5048946;28;8843;-56
2020/12/05 02:15:14;;;;;;;;;117.50;82.50;;;;;1.01;94.01;99159.34;5046666;28;8842;-55
2020/12/05 02:17:52;;;;;;;;;108.50;70.50;;;;;0.80;93.99;99147.66;5056180;28;8833;-54
2020/12/05 02:20:20;;;;;;;;;165.50;125.25;;;;;1.12;93.95;99149.28;5066475;28;8832;-53
2020/12/05 02:22:52;;;;;;;;;113.25;83.00;;;;;1.21;93.55;99156.94;5056504;28;8829;-54
2020/12/05 02:25:19;;;;;;;;;105.75;77.00;;;;;0.94;92.82;99149.88;5061853;28;9462;-56
2020/12/05 02:27:46;;;;;;;;;112.50;78.00;;;;;0.94;93.33;99149.88;5074127;28;9480;-56
2020/12/05 02:30:13;;;;;;;;;86.25;58.50;;;;;1.00;93.34;99153.19;5053704;28;8833;-56
2020/12/05 02:32:40;;;;;;;;;93.00;72.00;;;;;0.79;92.74;99151.19;5049346;28;8928;-55
2020/12/05 02:35:07;;;;;;;;;96.75;66.00;;;;;0.58;92.97;99169.44;5056154;28;8828;-51
2020/12/05 02:37:43;;;;;;;;;111.50;78.25;;;;;1.01;93.50;99162.84;5060200;28;9456;-55
2020/12/05 02:40:10;;;;;;;;;106.50;77.00;;;;;0.79;93.38;99164.41;5056135;28;8826;-54
2020/12/05 02:42:37;;;;;;;;;107.75;79.00;;;;;0.44;93.16;99163.66;5056339;28;8842;-56
2020/12/05 02:45:10;;;;;;;;;113.75;87.50;;;;;0.33;93.87;99174.53;5056300;28;8814;-55
2020/12/05 02:47:37;;;;;;;;;93.50;69.00;;;;;0.22;93.97;99158.16;5064937;28;8823;-55
2020/12/05 02:50:05;;;;;;;;;99.75;72.50;;;;;0.25;93.48;99158.06;5075859;28;8943;-56
2020/12/05 02:52:31;;;;;;;;;112.00;78.75;;;;;0.07;93.93;99175.25;5062297;28;8838;-55
2020/12/05 02:54:58;;;;;;;;;95.00;70.25;;;;;0.85;93.52;99166.88;5055506;28;8845;-55
2020/12/05 02:57:25;;;;;;;;;99.25;70.00;;;;;0.65;94.05;99173.59;5055403;28;8846;-55
2020/12/05 02:59:52;;;;;;;;;81.00;61.25;;;;;0.95;93.81;99170.09;5056010;28;8940;-54
2020/12/05 03:02:19;;;;;;;;;95.25;65.50;;;;;0.95;93.91;99167.44;5055699;28;8818;-55
2020/12/05 03:04:46;;;;;;;;;99.25;70.50;;;;;0.97;92.75;99171.75;5054591;28;8845;-55
2020/12/05 03:07:15;;;;;;;;;84.00;61.75;;;;;0.82;93.87;99164.34;5064439;28;8846;-54
2020/12/05 03:09:42;;;;;;;;;114.50;84.25;;;;;0.78;93.73;99175.88;5035709;28;8848;-55
2020/12/05 03:12:09;;;;;;;;;89.25;66.50;;;;;0.84;93.88;99166.03;5043009;28;8826;-55
2020/12/05 03:14:36;;;;;;;;;81.50;61.50;;;;;1.22;92.70;99171.88;5071224;28;8890;-55
2020/12/05 03:17:03;;;;;;;;;88.25;65.00;;;;;1.13;92.46;99169.50;5071102;28;8853;-53
2020/12/05 03:19:30;;;;;;;;;100.25;75.00;;;;;0.89;93.04;99160.56;5055647;28;8848;-55
2020/12/05 03:21:57;;;;;;;;;90.50;66.25;;;;;0.93;92.61;99167.50;5055512;28;8833;-54
2020/12/05 03:24:24;;;;;;;;;96.75;70.50;;;;;0.76;93.21;99167.13;5054163;28;8857;-55
2020/12/05 03:26:51;;;;;;;;;90.50;61.50;;;;;0.93;93.28;99164.84;5057036;28;8944;-54
2020/12/05 03:29:18;;;;;;;;;78.00;57.75;;;;;0.86;93.40;99155.38;5057359;28;8907;-53
2020/12/05 03:34:12;;;;;;;;;87.75;58.50;;;;;0.84;93.58;99176.59;5055501;28;8844;-55
2020/12/05 03:36:39;;;;;;;;;78.50;55.75;;;;;0.95;92.68;99192.13;5055215;28;9607;-53
2020/12/05 03:39:05;;;;;;;;;74.00;57.00;;;;;0.58;93.16;99194.97;5053619;28;8840;-55
2020/12/05 03:41:32;;;;;;;;;72.25;56.50;;;;;0.62;92.88;99197.47;5054502;28;8852;-54
2020/12/05 03:43:59;;;;;;;;;78.00;57.50;;;;;0.24;93.24;99201.22;5063564;28;8827;-54
2020/12/05 03:46:27;;;;;;;;;73.25;59.00;;;;;0.32;93.70;99209.78;5059136;28;8840;-54
2020/12/05 03:48:54;;;;;;;;;84.75;59.50;;;;;0.47;93.44;99210.25;5058170;28;8813;-53
2020/12/05 03:51:21;;;;;;;;;80.25;57.00;;;;;0.57;93.86;99212.59;5055160;28;8822;-55
2020/12/05 03:53:48;;;;;;;;;82.00;61.00;;;;;0.04;93.25;99217.59;5055429;28;8837;-54
2020/12/05 03:56:14;;;;;;;;;76.75;53.00;;;;;0.12;93.21;99212.09;5054688;28;8833;-54
2020/12/05 03:58:41;;;;;;;;;86.50;62.00;;;;;0.41;93.91;99213.94;5063046;28;8872;-56
2020/12/05 04:01:09;;;;;;;;;85.25;64.75;;;;;0.40;93.72;99212.22;5067596;28;8829;-55
2020/12/05 04:03:36;;;;;;;;;74.00;58.75;;;;;-0.06;93.76;99213.44;5054956;28;9576;-56
2020/12/05 04:06:03;;;;;;;;;87.50;62.50;;;;;0.22;94.40;99216.22;5059765;28;8850;-54
2020/12/05 04:08:29;;;;;;;;;83.00;59.50;;;;;0.42;93.84;99211.28;5061665;28;8892;-53
2020/12/05 04:10:57;;;;;;;;;87.25;62.50;;;;;0.32;93.94;99208.94;5054389;28;8802;-54
2020/12/05 04:13:27;;;;;;;;;83.00;61.50;;;;;0.12;93.40;99201.53;5049862;28;9437;-53
2020/12/05 04:15:54;;;;;;;;;87.00;60.75;;;;;-0.09;93.98;99206.47;5053754;28;8946;-55
2020/12/05 04:18:21;;;;;;;;;93.25;69.25;;;;;0.15;94.05;99199.66;5067830;28;8808;-54
2020/12/05 04:20:48;;;;;;;;;92.50;63.75;;;;;0.24;94.32;99201.22;5074455;28;8990;-56
2020/12/05 04:23:15;;;;;;;;;72.25;51.00;;;;;0.41;93.73;99201.59;5054527;28;8932;-56
2020/12/05 04:25:42;;;;;;;;;68.00;57.25;;;;;0.34;94.61;99201.81;5058462;28;8814;-56
2020/12/05 04:28:09;;;;;;;;;79.50;54.00;;;;;0.41;93.79;99203.38;5063787;28;8941;-56
2020/12/05 04:30:36;;;;;;;;;78.25;52.75;;;;;0.25;93.69;99207.34;5054423;28;8889;-55
2020/12/05 04:33:03;;;;;;;;;72.50;52.25;;;;;0.35;93.73;99208.84;5056387;28;8854;-54
2020/12/05 04:35:30;;;;;;;;;72.50;48.25;;;;;0.32;93.92;99209.78;5034342;28;8836;-55
2020/12/05 04:37:57;;;;;;;;;79.75;56.75;;;;;0.20;93.23;99218.03;5056860;28;8948;-55
2020/12/05 04:40:26;;;;;;;;;79.25;58.00;;;;;-0.24;93.78;99215.66;5056715;28;8918;-56
2020/12/05 04:42:54;;;;;;;;;87.50;59.50;;;;;-0.21;93.95;99220.00;5060972;28;8932;-55
2020/12/05 04:45:21;;;;;;;;;74.25;58.25;;;;;-0.22;93.59;99234.94;5058750;28;8829;-55
2020/12/05 04:47:49;;;;;;;;;79.50;60.00;;;;;-0.10;94.59;99227.66;5065387;28;8843;-54
2020/12/05 04:50:16;;;;;;;;;74.00;54.25;;;;;-0.04;93.69;99223.06;5078155;28;8843;-55
2020/12/05 04:52:50;;;;;;;;;82.50;55.75;;;;;-0.08;94.08;99229.34;5065029;28;8938;-55
2020/12/05 04:55:22;;;;;;;;;83.00;61.00;;;;;-0.07;94.52;99227.56;5058118;28;8864;-56
2020/12/05 04:57:59;;;;;;;;;79.00;61.00;;;;;0.03;94.11;99238.72;5065658;28;8993;-55
2020/12/05 05:00:27;;;;;;;;;76.00;57.50;;;;;0.19;93.66;99246.22;5078495;28;8912;-55
2020/12/05 05:02:58;;;;;;;;;83.75;60.00;;;;;-0.07;94.17;99253.94;5078395;28;8846;-53
2020/12/05 05:05:26;;;;;;;;;79.50;58.50;;;;;-0.18;94.42;99261.28;5076392;28;8809;-53
2020/12/05 05:07:56;;;;;;;;;72.75;57.50;;;;;-0.06;94.13;99260.94;5059818;28;8825;-56
2020/12/05 05:10:31;;;;;;;;;70.50;55.50;;;;;0.34;93.62;99262.53;5057392;28;8871;-56
2020/12/05 05:15:42;;;;;;;;;87.75;64.50;;;;;-0.11;93.66;99262.81;5055836;28;8822;-53
2020/12/05 05:18:12;;;;;;;;;84.50;62.00;;;;;-0.27;94.25;99260.56;5045065;28;8839;-54
2020/12/05 05:20:43;;;;;;;;;75.00;56.50;;;;;-0.11;94.26;99257.56;5060026;28;8830;-55
2020/12/05 05:23:19;;;;;;;;;77.50;58.00;;;;;0.18;94.30;99248.88;5074190;28;8818;-56
2020/12/05 05:26:00;;;;;;;;;79.50;58.00;;;;;-0.05;93.82;99253.00;5058661;28;8833;-56
2020/12/05 05:28:47;;;;;;;;;72.25;53.50;;;;;-0.19;93.12;99252.47;5057908;28;8889;-56
2020/12/05 05:31:30;;;;;;;;;69.75;52.50;;;;;-0.22;94.01;99250.78;5068494;28;8830;-54
2020/12/05 05:33:56;;;;;;;;;84.50;62.75;;;;;0.07;94.40;99248.31;5057249;28;8826;-55
2020/12/05 05:36:29;;;;;;;;;87.00;60.50;;;;;0.01;94.64;99249.34;5057598;28;8837;-54
2020/12/05 05:39:08;;;;;;;;;76.75;54.25;;;;;-0.05;93.28;99257.41;5057464;28;8838;-55
2020/12/05 05:41:38;;;;;;;;;75.75;53.50;;;;;-0.18;93.47;99266.56;5060308;28;9441;-56
2020/12/05 05:44:13;;;;;;;;;74.25;53.50;;;;;-0.35;93.29;99265.16;5043240;28;8822;-55
2020/12/05 05:46:44;;;;;;;;;77.50;52.00;;;;;-0.30;94.16;99260.66;5057114;28;8936;-54
2020/12/05 05:49:23;;;;;;;;;76.50;55.00;;;;;-0.48;93.95;99267.22;5062381;28;8804;-55
2020/12/05 05:51:51;;;;;;;;;74.75;54.00;;;;;-0.38;93.49;99264.38;5076842;28;9507;-55
2020/12/05 05:54:29;;;;;;;;;79.00;59.50;;;;;-0.53;93.83;99266.47;5064423;28;8822;-55
2020/12/05 05:57:14;;;;;;;;;79.75;57.50;;;;;-0.52;94.11;99268.22;5068338;28;8845;-55
2020/12/05 05:59:44;;;;;;;;;83.00;60.00;;;;;-0.51;93.99;99280.47;5072548;28;8819;-55
2020/12/05 06:02:13;;;;;;;;;82.75;60.50;;;;;-0.56;94.08;99281.50;5063048;28;8826;-54
2020/12/05 06:04:47;;;;;;;;;84.75;60.25;;;;;-0.39;94.27;99286.41;5056863;28;8841;-55
2020/12/05 06:07:17;;;;;;;;;88.50;64.75;;;;;-0.38;94.29;99280.22;5058841;28;8868;-55
2020/12/05 06:09:50;;;;;;;;;95.00;68.00;;;;;-0.50;94.06;99291.88;5062555;28;8831;-54
2020/12/05 06:12:27;;;;;;;;;92.25;64.50;;;;;-0.54;93.73;99274.44;5045986;28;9465;-53
2020/12/05 06:14:55;;;;;;;;;88.25;63.00;;;;;-0.43;94.27;99279.44;5056603;28;8821;-53
2020/12/05 06:17:23;;;;;;;;;96.25;68.00;;;;;-0.39;94.07;99275.84;5073267;28;8876;-52
2020/12/05 06:19:54;;;;;;;;;80.25;59.00;;;;;-0.58;93.99;99283.28;5069022;28;9486;-55
2020/12/05 06:22:40;;;;;;;;;79.50;58.00;;;;;-0.44;94.06;99286.50;5056493;28;8829;-55
2020/12/05 06:25:16;;;;;;;;;86.00;63.00;;;;;-0.25;93.88;99287.78;5071702;28;8845;-55
2020/12/05 06:28:00;;;;;;;;;79.50;57.75;;;;;-0.30;93.91;99287.03;5063475;28;8815;-54
2020/12/05 06:30:28;;;;;;;;;90.75;62.75;;;;;-0.26;93.06;99290.47;5076196;28;8846;-54
2020/12/05 06:32:58;;;;;;;;;86.50;63.00;;;;;-0.32;93.16;99285.31;5071762;28;8845;-57
2020/12/05 06:35:25;;;;;;;;;92.50;62.50;;;;;-0.11;93.25;99294.50;5056232;28;8822;-57
2020/12/05 06:37:56;;;;;;;;;85.00;63.75;;;;;-0.18;93.48;99293.78;5060752;28;8819;-57
2020/12/05 06:40:26;;;;;;;;;89.50;60.50;;;;;0.24;92.85;99295.38;5062610;28;8844;-56
2020/12/05 06:42:57;;;;;;;;;90.25;64.50;;;;;0.09;93.35;99305.44;5064767;28;8852;-55
2020/12/05 06:45:26;;;;;;;;;85.25;60.50;;;;;0.21;92.71;99313.03;5067777;28;8812;-55
2020/12/05 06:48:09;;;;;;;;;81.00;59.75;;;;;0.12;92.89;99310.63;5074526;28;8839;-54
2020/12/05 06:50:42;;;;;;;;;87.00;62.25;;;;;0.38;92.12;99312.59;5076618;28;8850;-52
2020/12/05 06:53:21;;;;;;;;;85.75;60.75;;;;;0.37;92.35;99318.78;5060496;28;8847;-54
2020/12/05 06:55:49;;;;;;;;;88.25;64.25;;;;;0.41;92.51;99304.59;5063073;28;9239;-52
2020/12/05 06:58:26;;;;;;;;;99.00;70.50;;;;;0.69;92.80;99319.72;5059715;28;8858;-54
2020/12/05 07:00:54;;;;;;;;;97.25;67.00;;;;;0.92;93.29;99307.59;5074963;28;8827;-54
2020/12/05 07:03:39;;;;;;;;;90.25;66.50;;;;;0.96;93.50;99325.13;5056175;28;8941;-55
2020/12/05 07:06:25;;;;;;;;;99.50;71.50;;;;;0.81;93.51;99319.34;5056339;28;8818;-55
2020/12/05 07:08:53;;;;;;;;;96.00;66.00;;;;;0.93;93.00;99326.06;5066755;28;8965;-55
2020/12/05 07:11:21;;;;;;;;;85.25;69.00;;;;;0.92;93.53;99326.97;5051594;28;8828;-53
2020/12/05 07:13:50;;;;;;;;;215.25;180.75;;;;;1.07;92.99;99330.97;5052886;28;8915;-55
2020/12/05 07:16:23;;;;;;;;;115.00;88.50;;;;;1.28;92.99;99318.91;5054484;28;8829;-54
2020/12/05 07:18:53;;;;;;;;;115.50;86.00;;;;;1.47;93.21;99328.00;5055638;28;8841;-52
2020/12/05 07:21:22;;;;;;;;;111.50;81.00;;;;;1.65;92.31;99338.94;5055627;28;9492;-53
2020/12/05 07:23:51;;;;;;;;;111.50;78.00;;;;;1.71;91.83;99337.00;5060623;28;8863;-53
2020/12/05 07:26:18;;;;;;;;;125.50;96.50;;;;;1.88;92.38;99331.16;5062679;28;8918;-55
2020/12/05 07:28:53;;;;;;;;;106.50;79.50;;;;;1.95;92.16;99343.28;5055878;28;8968;-55
2020/12/05 07:31:21;;;;;;;;;88.75;65.25;;;;;2.02;91.96;99348.38;5055058;28;8842;-54
2020/12/05 07:33:48;;;;;;;;;99.50;70.00;;;;;2.08;91.97;99342.88;5055631;28;9489;-54
2020/12/05 07:36:17;;;;;;;;;127.25;95.50;;;;;2.08;92.28;99353.47;5055051;28;8864;-54
2020/12/05 07:38:46;;;;;;;;;82.00;62.75;;;;;2.13;91.80;99360.38;5055545;28;8834;-54
2020/12/05 07:41:20;;;;;;;;;92.75;64.00;;;;;2.22;91.12;99359.19;5054830;28;8830;-55
2020/12/05 07:43:55;;;;;;;;;82.50;62.25;;;;;2.32;90.88;99359.75;5054794;28;8826;-56
2020/12/05 07:46:22;;;;;;;;;101.75;70.25;;;;;2.29;90.71;99352.78;5051978;28;8885;-54
2020/12/05 07:48:49;;;;;;;;;94.00;68.25;;;;;2.45;90.78;99357.53;5052636;28;8927;-51
2020/12/05 07:51:18;;;;;;;;;92.75;61.75;;;;;2.54;90.55;99357.25;5051537;28;8849;-52
2020/12/05 07:53:47;;;;;;;;;76.75;50.75;;;;;2.55;90.90;99356.31;5051209;28;8830;-54
2020/12/05 07:56:22;;;;;;;;;75.25;57.00;;;;;2.45;91.00;99360.19;5060145;28;8800;-52
2020/12/05 07:58:58;;;;;;;;;79.00;59.25;;;;;2.60;91.23;99357.88;5062691;28;8882;-52
2020/12/05 08:02:04;;;;;;;;;72.25;53.25;;;;;2.76;91.52;99350.25;5045934;28;8867;-53
2020/12/05 08:04:52;;;;;;;;;71.75;51.25;;;;;2.80;91.45;99348.38;5032361;28;8836;-51
2020/12/05 08:07:37;;;;;;;;;69.75;51.75;;;;;3.10;91.82;99350.84;5038831;28;8849;-53
2020/12/05 08:10:15;;;;;;;;;70.50;52.25;;;;;3.26;90.94;99349.34;5065885;28;8845;-55
2020/12/05 08:12:45;;;;;;;;;50.50;41.25;;;;;3.49;90.72;99359.13;5057173;28;8808;-53
2020/12/05 08:15:19;;;;;;;;;72.00;50.50;;;;;3.72;90.16;99353.78;5071845;28;8873;-51
2020/12/05 08:17:46;;;;;;;;;67.25;50.50;;;;;3.87;89.89;99359.41;5054700;28;8889;-53
2020/12/05 08:20:15;;;;;;;;;70.25;56.50;;;;;4.14;89.73;99357.47;5050482;28;8849;-54
2020/12/05 08:22:42;;;;;;;;;109.25;80.50;;;;;4.12;88.83;99354.84;5051654;28;8850;-54
2020/12/05 08:25:11;;;;;;;;;106.50;72.50;;;;;4.18;88.57;99351.94;5063609;28;8829;-54
2020/12/05 08:27:39;;;;;;;;;86.25;63.25;;;;;4.57;87.81;99351.22;5049355;28;8949;-54
2020/12/05 08:30:07;;;;;;;;;97.75;74.50;;;;;4.89;88.34;99358.72;5062714;28;8841;-53
2020/12/05 08:32:36;;;;;;;;;106.25;75.75;;;;;4.89;87.73;99356.94;5050965;28;8952;-54
2020/12/05 08:35:14;;;;;;;;;72.00;54.00;;;;;5.17;87.15;99355.72;5052034;28;8952;-54
2020/12/05 08:37:45;;;;;;;;;207.75;166.25;;;;;5.18;86.44;99362.75;5051491;28;8928;-55
2020/12/05 08:40:17;;;;;;;;;73.00;56.00;;;;;5.22;86.76;99361.72;5049772;28;8923;-52
2020/12/05 08:42:48;;;;;;;;;78.25;57.50;;;;;5.15;86.60;99363.75;5038532;28;8827;-54
2020/12/05 08:45:20;;;;;;;;;77.25;58.50;;;;;5.30;86.47;99356.91;5063232;28;8842;-52
2020/12/05 08:47:53;;;;;;;;;72.50;50.00;;;;;5.31;87.06;99363.94;5049580;28;8923;-53
2020/12/05 08:50:34;;;;;;;;;75.75;60.50;;;;;5.40;87.06;99368.88;5051612;28;8849;-54
2020/12/05 08:53:03;;;;;;;;;89.75;65.50;;;;;5.58;86.77;99361.84;5051970;28;8850;-51
2020/12/05 08:55:32;;;;;;;;;74.25;50.75;;;;;5.67;86.62;99357.88;5050971;28;8861;-49
2020/12/05 08:58:01;;;;;;;;;77.50;54.50;;;;;5.71;86.47;99378.09;5050790;28;9232;-51
2020/12/05 09:00:31;;;;;;;;;88.25;66.25;;;;;5.88;86.10;99380.84;5050018;28;8883;-53
2020/12/05 09:02:58;;;;;;;;;76.00;51.25;;;;;6.14;85.44;99381.44;5047121;28;8921;-53
2020/12/05 09:05:25;;;;;;;;;77.00;54.75;;;;;6.08;85.21;99376.38;5041732;28;9182;-53
2020/12/05 09:07:59;;;;;;;;;72.25;52.00;;;;;6.12;85.02;99364.63;5050931;28;8876;-54
2020/12/05 09:10:28;;;;;;;;;111.25;82.00;;;;;6.35;85.02;99364.38;5068500;28;8850;-54
2020/12/05 09:13:07;;;;;;;;;74.75;57.00;;;;;6.34;85.21;99364.44;5050861;28;8872;-53
2020/12/05 09:15:37;;;;;;;;;88.25;65.75;;;;;6.70;83.94;99367.06;5040110;28;8822;-55
2020/12/05 09:18:04;;;;;;;;;46.67;37.67;;;;;7.01;83.32;99362.84;5047341;28;8848;-55
2020/12/05 09:20:32;;;;;;;;;68.00;48.00;;;;;7.19;83.08;99369.03;5031993;28;8856;-53
2020/12/05 09:23:00;;;;;;;;;54.67;42.00;;;;;7.41;82.43;99352.69;5052588;28;8919;-54
2020/12/05 09:25:37;;;;;;;;;67.00;50.00;;;;;7.49;83.11;99361.16;5069811;28;8944;-54
2020/12/05 09:28:12;;;;;;;;;89.50;64.00;;;;;7.51;82.05;99363.75;5046219;28;8818;-55
2020/12/05 09:30:39;;;;;;;;;76.00;57.00;;;;;7.89;81.86;99358.97;5053796;28;8850;-52
2020/12/05 09:33:15;;;;;;;;;59.50;47.25;;;;;7.75;81.43;99361.56;5062504;28;8813;-54
2020/12/05 09:35:43;;;;;;;;;54.00;40.00;;;;;7.82;81.47;99350.44;5056359;28;8849;-53
2020/12/05 09:38:10;;;;;;;;;53.00;41.33;;;;;8.09;81.58;99350.69;5067149;28;8840;-56
2020/12/05 09:40:37;;;;;;;;;76.50;58.50;;;;;8.36;80.05;99360.75;5076208;28;8843;-53
2020/12/05 09:43:04;;;;;;;;;81.00;60.00;;;;;8.30;79.63;99356.63;5065365;28;8810;-55
2020/12/05 09:45:34;;;;;;;;;62.00;47.67;;;;;8.27;80.61;99355.94;5056211;28;8814;-54
2020/12/05 09:48:02;;;;;;;;;72.00;53.75;;;;;8.34;79.74;99350.13;5057489;28;8900;-54
2020/12/05 09:50:29;;;;;;;;;83.50;61.00;;;;;8.35;80.11;99353.69;5053565;28;8861;-52
2020/12/05 09:52:57;;;;;;;;;75.00;55.00;;;;;8.66;80.09;99351.91;5055370;28;8830;-52
2020/12/05 09:55:24;;;;;;;;;48.67;41.67;;;;;8.63;78.81;99350.28;5043168;28;8814;-55
2020/12/05 09:57:51;;;;;;;;;41.33;33.67;;;;;8.67;79.27;99349.16;5047979;28;8845;-53
2020/12/05 10:00:19;;;;;;;;;47.33;37.67;;;;;8.77;79.49;99344.13;5055242;28;8877;-53
2020/12/05 10:02:46;;;;;;;;;47.33;39.00;;;;;8.91;79.31;99343.28;5054748;28;8818;-53
2020/12/05 10:05:13;;;;;;;;;74.00;57.33;;;;;9.05;78.67;99355.84;5053220;28;8834;-53
2020/12/05 10:07:41;;;;;;;;;62.00;49.33;;;;;8.91;78.65;99346.81;5055627;28;8830;-54
2020/12/05 10:10:10;;;;;;;;;58.33;43.33;;;;;8.99;78.11;99349.91;5055849;28;8824;-55
2020/12/05 10:12:38;;;;;;;;;62.00;41.33;;;;;8.89;78.04;99343.38;5054099;28;8905;-55
2020/12/05 10:15:06;;;;;;;;;49.00;38.00;;;;;8.89;79.01;99342.53;5055061;28;8853;-54
2020/12/05 10:17:34;;;;;;;;;50.67;38.33;;;;;8.90;78.49;99347.78;5055868;28;8933;-54
2020/12/05 10:20:00;;;;;;;;;63.33;47.00;;;;;9.08;77.48;99344.94;5054181;28;8857;-51
2020/12/05 10:22:27;;;;;;;;;40.67;23.33;;;;;9.01;78.18;99353.34;5054875;28;8861;-51
2020/12/05 10:24:54;;;;;;;;;63.67;49.67;;;;;9.24;79.02;99343.03;5064275;28;9482;-55
2020/12/05 10:27:21;;;;;;;;;63.67;49.67;;;;;9.63;77.54;99345.03;5054127;28;8822;-52
2020/12/05 10:29:48;;;;;;;;;57.00;42.67;;;;;9.41;77.55;99348.22;5055365;28;8818;-53
2020/12/05 10:32:15;;;;;;;;;37.67;33.00;;;;;9.48;77.10;99353.19;5055763;28;8919;-55
2020/12/05 10:34:42;;;;;;;;;71.00;55.00;;;;;9.52;76.57;99352.91;5053019;28;8904;-55
2020/12/05 10:37:09;;;;;;;;;95.25;72.25;;;;;9.71;75.92;99352.59;5055033;28;8845;-54
2020/12/05 10:39:36;;;;;;;;;62.33;49.67;;;;;10.02;76.65;99350.66;5054548;28;8858;-54
2020/12/05 10:42:03;;;;;;;;;96.75;72.75;;;;;9.82;76.36;99346.56;5054425;28;8850;-51
2020/12/05 10:47:06;;;;;;;;;77.67;56.33;;;;;10.12;75.72;99346.41;5282012;22;8889;-61
2020/12/05 10:49:33;;;;;;;;;58.00;46.00;;;;;10.09;77.11;99335.88;4993209;28;8824;-60
2020/12/05 10:52:00;;;;;;;;;53.33;41.00;;;;;10.05;75.85;99335.22;5006404;28;8829;-60
2020/12/05 10:54:27;;;;;;;;;54.00;44.00;;;;;10.14;75.91;99328.41;5015664;28;8849;-60
2020/12/05 10:56:56;;;;;;;;;53.67;42.67;;;;;10.23;75.61;99337.66;4995731;28;8823;-60
2020/12/05 10:59:23;;;;;;;;;42.67;39.00;;;;;10.21;75.83;99332.38;4982267;28;8855;-60
2020/12/05 11:01:50;;;;;;;;;92.50;65.25;;;;;10.38;74.78;99335.84;4995520;28;8840;-60
2020/12/05 11:04:17;;;;;;;;;76.00;55.00;;;;;10.29;75.06;99342.66;4991764;28;8827;-60
2020/12/05 11:06:43;;;;;;;;;49.00;41.33;;;;;10.59;75.01;99345.13;4996666;28;8836;-60
2020/12/05 11:09:10;;;;;;;;;45.33;41.67;;;;;10.61;73.92;99343.22;4981191;28;8835;-60
2020/12/05 11:11:38;;;;;;;;;58.67;45.67;;;;;10.81;74.26;99335.63;4985598;28;8824;-60
2020/12/05 11:14:05;;;;;;;;;51.00;40.67;;;;;10.86;74.36;99336.16;4992764;28;8824;-60
2020/12/05 11:16:32;;;;;;;;;57.00;43.33;;;;;10.68;74.20;99333.75;4994694;28;8828;-60
2020/12/05 11:18:59;;;;;;;;;47.67;37.00;;;;;10.61;75.17;99327.09;4994126;28;8860;-60
2020/12/05 11:21:25;;;;;;;;;39.00;27.25;;;;;10.81;74.29;99328.41;4996450;28;8863;-60
2020/12/05 11:23:52;;;;;;;;;44.00;37.00;;;;;11.04;73.63;99334.91;4994461;28;11619;-60
2020/12/05 11:26:22;;;;;;;;;31.50;26.75;;;;;10.82;73.98;99346.28;4994934;28;11621;-60
2020/12/05 11:28:50;;;;;;;;;35.50;26.50;;;;;10.89;74.52;99342.19;4994047;28;11611;-60
2020/12/05 11:31:17;;;;;;;;;33.67;32.00;;;;;10.81;74.81;99325.72;4995148;28;11662;-60
2020/12/05 11:34:59;;;;;;;;;46.00;30.33;;;;;11.11;74.42;99325.47;4992032;28;11603;-60
2020/12/05 11:37:26;;;;;;;;;78.67;58.00;;;;;10.93;74.68;99318.66;4994150;28;12242;-60
2020/12/05 11:39:53;;;;;;;;;74.33;56.00;;;;;11.21;74.36;99326.50;4994429;28;8859;-60
2020/12/05 11:43:09;;;;;;;;;93.50;73.50;;;;;11.46;72.48;99332.88;4992074;28;9277;-60
2020/12/05 11:45:36;;;;;;;;;65.00;52.00;;;;;11.33;72.84;99324.81;4993113;28;8860;-61
2020/12/05 11:48:03;;;;;;;;;29.00;25.25;;;;;11.21;73.36;99325.66;4995117;28;8842;-60
2020/12/05 11:50:30;;;;;;;;;93.25;80.25;;;;;11.25;73.44;99326.31;4995512;28;12363;-60